CheckWX is a tool to help pilots better visualize weather data.  It is not intended as a substitute for an official pre-flight weather briefing.

12:03:41 UTC

ENTO METAR
Sandefjord Torp Airport
Torp, Norway
Current

14 mins ago

ENTO 251150Z 01013KT CAVOK 07/M09 Q1017 NOSIG
Observed
Mar-25 @ 11:50 UTC
Wind
  • 010° at 13 KTS
Visibility
10,000+ meters
Flight Rules
VFR
Cloud Levels
  • Clear skies
Temperature
C / 45°F
Dewpoint
-9°C / 16°F
Humidity
31%
Altimeter
30.03" Hg
Pressure
1016.92 hPa
Previous

44 mins ago

ENTO 251120Z 01015KT CAVOK 06/M08 Q1017 NOSIG
Observed
Mar-25 @ 11:20 UTC
Wind
  • 010° at 15 KTS
Visibility
10,000+ meters
Flight Rules
VFR
Cloud Levels
  • Clear skies
Temperature
C / 43°F
Dewpoint
-8°C / 18°F
Humidity
36%
Altimeter
30.03" Hg
Pressure
1016.92 hPa
Previous

1 hour ago

ENTO 251050Z 01012KT CAVOK 06/M06 Q1017 NOSIG
Observed
Mar-25 @ 10:50 UTC
Wind
  • 010° at 12 KTS
Visibility
10,000+ meters
Flight Rules
VFR
Cloud Levels
  • Clear skies
Temperature
C / 43°F
Dewpoint
-6°C / 21°F
Humidity
42%
Altimeter
30.03" Hg
Pressure
1016.92 hPa